createdAt,value
2022-09-27T00:02:26.162Z,41.99
2022-09-27T00:07:27.532Z,42.05
2022-09-27T00:12:28.924Z,42.13
2022-09-27T00:17:30.284Z,42.20
2022-09-27T00:22:32.067Z,41.84
2022-09-27T00:27:33.432Z,41.92
2022-09-27T00:32:34.794Z,42.00
2022-09-27T00:37:36.148Z,42.09
2022-09-27T00:42:37.564Z,41.91
2022-09-27T00:47:47.919Z,41.92
2022-09-27T00:53:03.768Z,41.93
2022-09-27T00:58:05.013Z,42.06
2022-09-27T01:03:06.368Z,42.13
2022-09-27T01:08:07.745Z,41.89
2022-09-27T01:13:36.353Z,42.05
2022-09-27T01:19:07.956Z,42.07
2022-09-27T01:24:25.475Z,41.82
2022-09-27T01:29:33.612Z,41.96
2022-09-27T01:34:42.740Z,42.13
2022-09-27T01:40:00.072Z,41.74
2022-09-27T01:45:09.592Z,42.15
2022-09-27T01:50:16.694Z,42.33
2022-09-27T01:55:18.536Z,41.93
2022-09-27T02:00:19.893Z,42.17
2022-09-27T02:05:21.256Z,42.07
2022-09-27T02:10:24.756Z,42.19
2022-09-27T02:15:26.435Z,42.20
2022-09-27T02:20:31.491Z,42.26
2022-09-27T02:25:43.036Z,42.28
2022-09-27T02:30:44.879Z,42.19
2022-09-27T02:35:46.260Z,42.01
2022-09-27T02:40:47.821Z,42.12
2022-09-27T02:45:52.275Z,42.16
2022-09-27T02:51:18.277Z,42.21
2022-09-27T02:56:26.833Z,42.47
2022-09-27T03:01:35.611Z,42.46
2022-09-27T03:06:38.284Z,42.03
2022-09-27T03:11:39.662Z,42.67
2022-09-27T03:16:41.055Z,42.66
2022-09-27T03:21:42.477Z,42.80
2022-09-27T03:26:43.896Z,42.71
2022-09-27T03:31:45.341Z,42.90
2022-09-27T03:36:46.697Z,42.97
2022-09-27T03:41:48.132Z,43.07
2022-09-27T03:46:49.486Z,43.20
2022-09-27T03:51:50.860Z,43.30
2022-09-27T03:56:52.240Z,43.52
2022-09-27T04:01:53.631Z,43.47
2022-09-27T04:06:55.025Z,43.72
2022-09-27T04:11:56.381Z,43.86
2022-09-27T04:16:57.787Z,43.92
2022-09-27T04:21:59.189Z,44.12
2022-09-27T04:27:00.573Z,44.05
2022-09-27T04:32:01.954Z,44.03
2022-09-27T04:37:03.586Z,43.97
2022-09-27T04:42:05.027Z,43.60
2022-09-27T04:52:12.685Z,43.67
2022-09-27T04:57:14.428Z,43.80
2022-09-27T05:02:15.846Z,43.50
2022-09-27T05:07:17.609Z,43.63
2022-09-27T05:12:19.448Z,43.83
2022-09-27T05:17:22.193Z,43.90
2022-09-27T05:22:23.600Z,43.93
2022-09-27T05:27:24.980Z,43.85
2022-09-27T05:32:26.340Z,44.11
2022-09-27T05:37:27.742Z,44.12
2022-09-27T05:42:29.096Z,44.32
2022-09-27T05:47:30.461Z,44.23
2022-09-27T05:52:31.829Z,44.21
2022-09-27T05:57:34.741Z,44.34
2022-09-27T06:02:36.174Z,44.55
2022-09-27T06:07:37.814Z,44.43
2022-09-27T06:12:39.208Z,44.43
2022-09-27T06:17:40.744Z,44.49
2022-09-27T06:22:42.125Z,43.96
2022-09-27T06:27:43.972Z,43.92
2022-09-27T06:32:45.345Z,43.81
2022-09-27T06:37:47.269Z,43.74
2022-09-27T06:42:49.812Z,43.63
2022-09-27T06:47:51.173Z,43.17
2022-09-27T06:52:52.536Z,43.42
2022-09-27T06:58:14.865Z,43.02
2022-09-27T07:03:16.344Z,43.17
2022-09-27T07:08:19.360Z,43.16
2022-09-27T07:13:20.872Z,43.79
2022-09-27T07:18:22.532Z,43.96
2022-09-27T07:23:23.901Z,43.88
2022-09-27T07:28:25.264Z,44.14
2022-09-27T07:33:26.660Z,43.94
2022-09-27T07:38:28.072Z,43.68
2022-09-27T07:43:29.450Z,43.49
2022-09-27T07:48:32.113Z,43.77
2022-09-27T07:53:33.789Z,43.32
2022-09-27T07:58:35.148Z,43.14
2022-09-27T08:03:36.585Z,43.20
2022-09-27T08:08:38.288Z,42.99
2022-09-27T08:13:39.961Z,42.93
2022-09-27T08:18:41.416Z,42.51
2022-09-27T08:23:42.878Z,42.70
2022-09-27T08:28:44.303Z,42.54
2022-09-27T08:33:51.640Z,42.06
2022-09-27T08:38:57.548Z,42.01
2022-09-27T08:44:17.757Z,42.18
2022-09-27T08:49:33.685Z,42.36
2022-09-27T08:54:35.084Z,42.04
2022-09-27T08:59:45.741Z,42.11
2022-09-27T09:04:49.246Z,42.21
2022-09-27T09:09:53.941Z,42.14
2022-09-27T09:15:54.026Z,42.09
2022-09-27T09:21:26.260Z,42.01
2022-09-27T09:26:30.518Z,42.08
2022-09-27T09:31:43.743Z,42.34
2022-09-27T09:36:47.748Z,42.29
2022-09-27T09:42:22.580Z,41.79
2022-09-27T09:47:33.176Z,41.73
2022-09-27T09:52:42.378Z,41.84
2022-09-27T09:57:53.570Z,41.50
2022-09-27T10:02:55.616Z,41.65
2022-09-27T10:07:58.684Z,41.75
2022-09-27T10:13:00.124Z,41.32
2022-09-27T10:18:01.538Z,41.62
2022-09-27T10:23:14.636Z,41.35
2022-09-27T10:28:37.088Z,41.32
2022-09-27T10:33:40.504Z,41.23
2022-09-27T10:38:41.877Z,40.98
2022-09-27T10:43:43.281Z,40.92
2022-09-27T10:48:45.032Z,40.68
2022-09-27T10:53:46.713Z,40.39
2022-09-27T10:58:48.070Z,40.22
2022-09-27T11:03:52.997Z,39.84
2022-09-27T11:08:55.364Z,40.38
2022-09-27T11:14:05.016Z,39.91
2022-09-27T11:19:46.359Z,39.74
2022-09-27T11:25:15.959Z,40.03
2022-09-27T11:30:21.100Z,39.99
2022-09-27T11:35:32.531Z,39.84
2022-09-27T11:40:45.677Z,40.13
2022-09-27T11:46:16.730Z,40.09
2022-09-27T11:51:29.757Z,40.29
2022-09-27T11:56:42.847Z,39.88
2022-09-27T12:02:17.822Z,40.16
2022-09-27T12:07:36.953Z,40.10
2022-09-27T12:12:38.938Z,40.19
2022-09-27T12:17:42.644Z,40.32
2022-09-27T12:23:00.268Z,40.01
2022-09-27T12:28:40.751Z,40.09
2022-09-27T12:33:51.074Z,40.21
2022-09-27T12:39:04.369Z,40.26
2022-09-27T12:44:05.726Z,40.45
2022-09-27T12:49:27.801Z,40.37
2022-09-27T12:54:32.138Z,40.40
2022-09-27T12:59:57.707Z,40.46
2022-09-27T13:05:46.708Z,40.33
2022-09-27T13:11:05.802Z,40.44
2022-09-27T13:16:07.295Z,40.71
2022-09-27T13:21:09.351Z,40.93
2022-09-27T13:26:34.570Z,40.86
2022-09-27T13:31:54.114Z,40.90
2022-09-27T13:36:55.549Z,40.95
2022-09-27T13:42:10.728Z,40.89
2022-09-27T13:47:33.528Z,40.84
2022-09-27T13:52:37.916Z,40.72
2022-09-27T13:57:42.241Z,40.55
2022-09-27T14:03:17.112Z,40.57
2022-09-27T14:08:34.241Z,40.38
2022-09-27T14:13:35.856Z,40.43
2022-09-27T14:23:42.240Z,40.15
2022-09-27T14:28:43.601Z,40.07
2022-09-27T14:33:45.129Z,40.25
2022-09-27T14:38:48.124Z,39.92
2022-09-27T14:43:50.421Z,39.93
2022-09-27T14:48:51.804Z,40.00
2022-09-27T14:53:58.372Z,40.24
2022-09-27T14:59:06.470Z,40.26
2022-09-27T15:04:08.902Z,39.90
2022-09-27T15:09:13.323Z,40.17
2022-09-27T15:14:16.224Z,40.02
2022-09-27T15:19:26.809Z,39.91
2022-09-27T15:24:45.002Z,40.12
2022-09-27T15:29:51.332Z,39.98
2022-09-27T15:34:52.731Z,40.00
2022-09-27T15:39:54.246Z,40.09
2022-09-27T15:44:58.693Z,40.21
2022-09-27T15:50:17.676Z,40.02
2022-09-27T15:55:25.093Z,39.91
2022-09-27T16:00:29.202Z,39.94
2022-09-27T16:05:33.001Z,39.70
2022-09-27T16:10:38.956Z,39.93
2022-09-27T16:15:40.349Z,39.86
2022-09-27T16:20:41.750Z,39.88
2022-09-27T16:25:43.125Z,40.06
2022-09-27T16:30:45.076Z,39.84
2022-09-27T16:35:46.436Z,40.21
2022-09-27T16:40:47.862Z,40.32
2022-09-27T16:45:49.278Z,40.24
2022-09-27T16:51:08.969Z,40.45
2022-09-27T16:56:10.346Z,40.48
2022-09-27T17:01:11.793Z,40.55
2022-09-27T17:06:13.223Z,40.52
2022-09-27T17:11:15.387Z,40.72
2022-09-27T17:16:16.990Z,40.72
2022-09-27T17:21:18.448Z,40.83
2022-09-27T17:26:21.114Z,40.88
2022-09-27T17:31:22.553Z,41.13
2022-09-27T17:36:29.703Z,41.03
2022-09-27T17:41:31.177Z,41.02
2022-09-27T17:46:36.633Z,40.86
2022-09-27T17:51:39.125Z,41.27
2022-09-27T17:56:42.386Z,41.15
2022-09-27T18:01:44.595Z,41.33
2022-09-27T18:06:46.452Z,41.14
2022-09-27T18:11:48.231Z,41.15
2022-09-27T18:16:49.652Z,41.08
2022-09-27T18:21:51.070Z,41.19
2022-09-27T18:26:54.200Z,41.19
2022-09-27T18:31:55.655Z,41.32
2022-09-27T18:36:57.057Z,41.47
2022-09-27T18:41:58.438Z,41.43
2022-09-27T18:46:59.943Z,41.22
2022-09-27T18:52:02.427Z,41.32
2022-09-27T18:57:03.792Z,41.40
2022-09-27T19:02:05.236Z,41.30
2022-09-27T19:07:07.997Z,41.48
2022-09-27T19:12:10.265Z,41.00
2022-09-27T19:17:11.624Z,41.27
2022-09-27T19:22:12.987Z,41.42
2022-09-27T19:27:14.350Z,41.29
2022-09-27T19:32:15.704Z,41.20
2022-09-27T19:37:17.066Z,40.94
2022-09-27T19:42:18.517Z,41.33
2022-09-27T19:47:19.961Z,41.04
2022-09-27T19:52:21.324Z,41.04
2022-09-27T19:57:22.892Z,40.99
2022-09-27T20:02:24.385Z,40.80
2022-09-27T20:07:25.906Z,41.08
2022-09-27T20:12:27.400Z,40.96
2022-09-27T20:17:32.689Z,40.75
2022-09-27T20:22:34.052Z,40.35
2022-09-27T20:27:37.336Z,40.85
2022-09-27T20:32:38.800Z,40.94
2022-09-27T20:37:40.172Z,41.02
2022-09-27T20:42:41.530Z,40.85
2022-09-27T20:47:42.893Z,40.79
2022-09-27T20:52:44.346Z,40.87
2022-09-27T20:57:57.480Z,40.78
2022-09-27T21:02:59.289Z,40.73
2022-09-27T21:08:00.796Z,40.82
2022-09-27T21:13:02.153Z,40.65
2022-09-27T21:18:03.564Z,40.64
2022-09-27T21:23:04.940Z,40.60
2022-09-27T21:28:06.314Z,40.73
2022-09-27T21:33:07.669Z,40.53
2022-09-27T21:38:09.029Z,40.77
2022-09-27T21:43:10.896Z,40.54
2022-09-27T21:48:12.256Z,40.81
2022-09-27T21:53:13.616Z,40.71
2022-09-27T21:58:14.988Z,40.74
2022-09-27T22:03:16.352Z,40.63
2022-09-27T22:08:17.936Z,40.82
2022-09-27T22:13:19.289Z,40.74
2022-09-27T22:18:20.640Z,40.59
2022-09-27T22:23:21.993Z,40.77
2022-09-27T22:28:23.620Z,40.74
2022-09-27T22:33:24.981Z,40.73
2022-09-27T22:38:26.341Z,40.43
2022-09-27T22:43:29.116Z,40.64
2022-09-27T22:48:30.733Z,40.47
2022-09-27T22:53:32.276Z,40.47
2022-09-27T22:58:33.950Z,40.62
2022-09-27T23:03:35.519Z,40.62
2022-09-27T23:08:37.004Z,40.33
2022-09-27T23:13:40.002Z,40.25
2022-09-27T23:18:41.927Z,40.23
2022-09-27T23:23:44.777Z,40.17
2022-09-27T23:28:46.205Z,39.96
2022-09-27T23:33:48.733Z,40.00
2022-09-27T23:38:50.233Z,40.07
2022-09-27T23:43:53.168Z,40.19
2022-09-27T23:48:54.590Z,40.04
2022-09-27T23:53:57.560Z,40.18
2022-09-27T23:59:00.929Z,40.01
